createdAt,value
2023-02-13T00:01:24.087Z,101572.41
2023-02-13T00:03:57.456Z,101568.03
2023-02-13T00:06:31.390Z,101564.53
2023-02-13T00:09:06.468Z,101569.81
2023-02-13T00:11:41.034Z,101569.03
2023-02-13T00:14:16.027Z,101578.72
2023-02-13T00:16:51.609Z,101575.34
2023-02-13T00:19:25.275Z,101575.28
2023-02-13T00:21:58.594Z,101578.88
2023-02-13T00:24:31.976Z,101582.34
2023-02-13T00:27:05.236Z,101583.28
2023-02-13T00:29:39.832Z,101582.41
2023-02-13T00:32:13.252Z,101517.38
2023-02-13T00:34:46.679Z,101589.53
2023-02-13T00:37:20.129Z,101582.53
2023-02-13T00:39:53.630Z,101587.06
2023-02-13T00:42:26.794Z,101586.22
2023-02-13T00:45:01.403Z,101584.44
2023-02-13T00:47:34.893Z,101587.84
2023-02-13T00:50:08.798Z,101588.75
2023-02-13T00:52:42.394Z,101595.88
2023-02-13T00:55:16.017Z,101594.09
2023-02-13T00:57:49.280Z,101582.78
2023-02-13T01:00:23.868Z,101597.63
2023-02-13T01:02:57.513Z,101593.31
2023-02-13T01:05:31.060Z,101596.00
2023-02-13T01:08:04.708Z,101599.47
2023-02-13T01:10:39.021Z,101596.78
2023-02-13T01:13:13.096Z,101593.28
2023-02-13T01:15:49.862Z,101593.28
2023-02-13T01:18:23.530Z,101574.22
2023-02-13T01:20:59.410Z,101594.13
2023-02-13T01:23:34.423Z,101594.97
2023-02-13T01:26:09.419Z,101598.44
2023-02-13T01:28:42.835Z,101587.97
2023-02-13T01:31:17.470Z,101595.88
2023-02-13T01:33:50.888Z,101596.00
2023-02-13T01:36:24.083Z,101595.97
2023-02-13T01:39:00.146Z,101600.31
2023-02-13T01:41:33.810Z,101603.00
2023-02-13T01:44:40.438Z,101606.44
2023-02-13T01:47:18.118Z,101611.69
2023-02-13T01:49:55.693Z,101606.44
2023-02-13T01:52:30.005Z,101607.38
2023-02-13T01:55:03.595Z,101609.22
2023-02-13T01:57:40.280Z,101614.44
2023-02-13T02:00:15.846Z,101618.00
2023-02-13T02:02:54.459Z,101615.38
2023-02-13T02:05:32.106Z,101624.13
2023-02-13T02:08:10.499Z,101625.97
2023-02-13T02:10:44.311Z,101626.97
2023-02-13T02:13:20.410Z,101617.41
2023-02-13T02:15:54.145Z,101625.25
2023-02-13T02:18:28.998Z,101625.19
2023-02-13T02:21:43.986Z,101626.13
2023-02-13T02:25:05.065Z,101630.41
2023-02-13T02:28:11.928Z,101630.47
2023-02-13T02:31:18.450Z,101642.66
2023-02-13T02:34:08.211Z,101650.47
2023-02-13T02:36:59.117Z,101646.09
2023-02-13T02:39:40.938Z,101654.00
2023-02-13T02:42:22.272Z,101651.41
2023-02-13T02:45:02.438Z,101654.03
2023-02-13T02:48:02.872Z,101656.69
2023-02-13T02:50:43.135Z,101647.13
2023-02-13T02:53:25.727Z,101653.31
2023-02-13T02:56:07.308Z,101662.88
2023-02-13T02:59:05.346Z,101659.41
2023-02-13T03:01:57.167Z,101662.06
2023-02-13T03:04:52.549Z,101665.56
2023-02-13T03:07:27.889Z,101665.56
2023-02-13T03:10:20.783Z,101675.19
2023-02-13T03:13:22.053Z,101664.72
2023-02-13T03:16:18.081Z,101667.34
2023-02-13T03:19:14.259Z,101647.34
2023-02-13T03:22:08.572Z,101672.66
2023-02-13T03:24:47.456Z,101668.28
2023-02-13T03:27:48.955Z,101670.91
2023-02-13T03:30:41.864Z,101670.91
2023-02-13T03:33:27.474Z,101673.50
2023-02-13T03:36:25.897Z,101657.84
2023-02-13T03:39:04.974Z,101682.22
2023-02-13T03:41:42.942Z,101670.91
2023-02-13T03:44:24.241Z,101676.13
2023-02-13T03:47:01.603Z,101677.03
2023-02-13T03:49:56.662Z,101681.41
2023-02-13T03:52:35.976Z,101678.75
2023-02-13T03:55:31.061Z,101671.81
2023-02-13T03:58:27.215Z,101675.28
2023-02-13T04:01:05.350Z,101683.13
2023-02-13T04:03:47.110Z,101690.09
2023-02-13T04:06:23.900Z,101670.06
2023-02-13T04:08:57.499Z,101687.47
2023-02-13T04:11:36.243Z,101679.66
2023-02-13T04:14:20.406Z,101693.56
2023-02-13T04:16:59.021Z,101666.56
2023-02-13T04:19:33.927Z,101683.97
2023-02-13T04:22:07.257Z,101675.25
2023-02-13T04:24:40.750Z,101683.97
2023-02-13T04:27:15.386Z,101682.22
2023-02-13T04:29:49.924Z,101689.19
2023-02-13T04:32:23.128Z,101677.88
2023-02-13T04:34:56.654Z,101685.72
2023-02-13T04:37:30.264Z,101683.97
2023-02-13T04:40:03.508Z,101680.50
2023-02-13T04:42:36.667Z,101689.22
2023-02-13T04:45:11.722Z,101696.19
2023-02-13T04:47:45.138Z,101692.72
2023-02-13T04:50:18.893Z,101704.91
2023-02-13T04:52:55.719Z,101704.03
2023-02-13T04:55:29.808Z,101705.75
2023-02-13T04:58:02.886Z,101711.00
2023-02-13T05:00:38.188Z,101716.19
2023-02-13T05:03:13.919Z,101706.59
2023-02-13T05:05:47.310Z,101713.59
2023-02-13T05:08:21.116Z,101713.59
2023-02-13T05:10:54.338Z,101716.19
2023-02-13T05:13:27.980Z,101717.06
2023-02-13T05:16:03.121Z,101720.53
2023-02-13T05:18:36.504Z,101723.16
2023-02-13T05:21:27.376Z,101730.97
2023-02-13T05:24:01.277Z,101719.66
2023-02-13T05:26:34.971Z,101725.75
2023-02-13T05:29:20.161Z,101737.94
2023-02-13T05:31:56.889Z,101733.50
2023-02-13T05:34:30.807Z,101723.94
2023-02-13T05:37:03.941Z,101747.47
2023-02-13T05:39:37.190Z,101743.16
2023-02-13T05:42:10.701Z,101751.88
2023-02-13T05:44:44.038Z,101745.78
2023-02-13T05:47:18.748Z,101749.25
2023-02-13T05:49:52.055Z,101747.53
2023-02-13T05:52:26.643Z,101746.66
2023-02-13T05:55:00.347Z,101751.00
2023-02-13T05:57:34.819Z,101745.78
2023-02-13T06:00:09.876Z,101748.44
2023-02-13T06:02:44.556Z,101744.09
2023-02-13T06:05:17.963Z,101749.31
2023-02-13T06:07:51.171Z,101737.09
2023-02-13T06:10:24.348Z,101726.66
2023-02-13T06:12:57.635Z,101743.22
2023-02-13T06:15:31.105Z,101742.31
2023-02-13T06:18:06.043Z,101752.81
2023-02-13T06:20:49.485Z,101752.81
2023-02-13T06:23:23.477Z,101752.81
2023-02-13T06:25:56.967Z,101752.81
2023-02-13T06:28:30.816Z,101756.34
2023-02-13T06:31:04.237Z,101748.50
2023-02-13T06:33:38.984Z,101734.53
2023-02-13T06:36:12.212Z,101748.50
2023-02-13T06:38:45.531Z,101747.63
2023-02-13T06:41:19.128Z,101755.47
2023-02-13T06:43:52.263Z,101753.75
2023-02-13T06:46:25.994Z,101756.34
2023-02-13T06:49:00.880Z,101748.50
2023-02-13T06:51:34.291Z,101753.72
2023-02-13T06:54:07.655Z,101751.13
2023-02-13T06:56:41.202Z,101749.38
2023-02-13T06:59:14.515Z,101747.63
2023-02-13T07:01:48.294Z,101740.63
2023-02-13T07:04:23.205Z,101741.47
2023-02-13T07:06:57.070Z,101740.59
2023-02-13T07:09:30.184Z,101743.19
2023-02-13T07:12:05.084Z,101738.81
2023-02-13T07:14:39.245Z,101743.16
2023-02-13T07:17:12.764Z,101744.88
2023-02-13T07:19:47.695Z,101743.09
2023-02-13T07:22:20.903Z,101747.44
2023-02-13T07:24:54.234Z,101751.75
2023-02-13T07:27:29.349Z,101751.69
2023-02-13T07:30:02.567Z,101742.91
2023-02-13T07:32:36.031Z,101749.81
2023-02-13T07:35:10.994Z,101737.53
2023-02-13T07:37:44.206Z,101754.03
2023-02-13T07:40:17.324Z,101739.09
2023-02-13T07:42:50.721Z,101731.19
2023-02-13T07:45:23.966Z,101748.50
2023-02-13T07:47:57.534Z,101749.28
2023-02-13T07:50:32.958Z,101743.06
2023-02-13T07:53:06.183Z,101681.97
2023-02-13T07:55:39.544Z,101743.63
2023-02-13T07:58:13.528Z,101740.91
2023-02-13T08:00:46.870Z,101745.97
2023-02-13T08:03:20.084Z,101718.75
2023-02-13T08:05:55.339Z,101733.34
2023-02-13T08:08:29.057Z,101728.81
2023-02-13T08:11:24.861Z,101710.41
2023-02-13T08:13:59.036Z,101725.81
2023-02-13T08:16:32.741Z,101703.91
2023-02-13T08:19:06.254Z,101720.16
2023-02-13T08:21:41.153Z,101719.13
2023-02-13T08:24:14.849Z,101722.44
2023-02-13T08:26:48.350Z,101717.16
2023-02-13T08:29:22.014Z,101721.28
2023-02-13T08:31:55.449Z,101721.84
2023-02-13T08:34:28.915Z,101719.25
2023-02-13T08:37:04.907Z,101704.25
2023-02-13T08:39:38.457Z,101712.88
2023-02-13T08:42:15.165Z,101712.66
2023-02-13T08:44:50.201Z,101720.31
2023-02-13T08:47:23.389Z,101656.69
2023-02-13T08:49:57.616Z,101721.63
2023-02-13T08:52:32.204Z,101712.56
2023-02-13T08:55:05.827Z,101716.78
2023-02-13T08:57:39.113Z,101715.53
2023-02-13T09:00:14.676Z,101708.72
2023-02-13T09:02:48.004Z,101703.38
2023-02-13T09:05:21.552Z,101693.47
2023-02-13T09:07:56.229Z,101702.91
2023-02-13T09:10:29.518Z,101710.84
2023-02-13T09:13:03.602Z,101692.34
2023-02-13T09:15:39.963Z,101677.44
2023-02-13T09:18:13.419Z,101691.94
2023-02-13T09:20:46.885Z,101689.31
2023-02-13T09:23:21.537Z,101701.59
2023-02-13T09:25:54.912Z,101698.06
2023-02-13T09:28:28.708Z,101693.63
2023-02-13T09:31:07.464Z,101668.38
2023-02-13T09:33:40.672Z,101676.59
2023-02-13T09:36:16.349Z,101665.63
2023-02-13T09:38:54.477Z,101673.34
2023-02-13T09:41:31.781Z,101664.31
2023-02-13T09:44:33.313Z,101661.72
2023-02-13T09:47:12.389Z,101648.59
2023-02-13T09:49:48.281Z,101656.47
2023-02-13T09:52:21.765Z,101651.97
2023-02-13T09:54:56.713Z,101635.28
2023-02-13T09:57:34.760Z,101646.88
2023-02-13T10:00:14.648Z,101643.25
2023-02-13T10:03:08.299Z,101634.34
2023-02-13T10:05:48.455Z,101634.16
2023-02-13T10:08:34.769Z,101629.72
2023-02-13T10:11:26.042Z,101619.28
2023-02-13T10:14:06.631Z,101619.97
2023-02-13T10:16:44.839Z,101619.69
2023-02-13T10:19:29.627Z,101613.97
2023-02-13T10:22:08.430Z,101610.25
2023-02-13T10:24:45.504Z,101602.97
2023-02-13T10:27:26.100Z,101592.47
2023-02-13T10:30:12.876Z,101574.16
2023-02-13T10:33:15.123Z,101599.09
2023-02-13T10:35:54.805Z,101585.69
2023-02-13T10:38:31.387Z,101574.25
2023-02-13T10:41:15.970Z,101572.38
2023-02-13T10:44:04.521Z,101570.50
2023-02-13T10:46:47.120Z,101559.78
2023-02-13T10:49:43.617Z,101551.53
2023-02-13T10:52:29.645Z,101548.63
2023-02-13T10:55:27.616Z,101548.63
2023-02-13T10:58:14.116Z,101539.69
2023-02-13T11:00:56.139Z,101525.44
2023-02-13T11:03:31.746Z,101507.72
2023-02-13T11:06:09.572Z,101517.00
2023-02-13T11:08:46.007Z,101494.81
2023-02-13T11:11:38.165Z,101500.44
2023-02-13T11:14:14.940Z,101489.31
2023-02-13T11:16:57.278Z,101466.41
2023-02-13T11:19:34.342Z,101485.09
2023-02-13T11:22:13.211Z,101488.56
2023-02-13T11:24:54.522Z,101474.50
2023-02-13T11:27:31.707Z,101461.00
2023-02-13T11:30:26.637Z,101468.38
2023-02-13T11:33:05.292Z,101450.19
2023-02-13T11:35:39.275Z,101465.09
2023-02-13T11:38:14.795Z,101459.22
2023-02-13T11:40:51.216Z,101457.34
2023-02-13T11:43:30.000Z,101444.66
2023-02-13T11:46:06.128Z,101450.53
2023-02-13T11:48:40.746Z,101442.91
2023-02-13T11:51:13.990Z,101448.00
2023-02-13T11:53:47.276Z,101440.31
2023-02-13T11:56:20.807Z,101449.16
2023-02-13T11:59:03.390Z,101435.91
2023-02-13T12:01:36.686Z,101441.19
2023-02-13T12:04:18.411Z,101422.13
2023-02-13T12:07:01.396Z,101280.25
2023-02-13T12:09:34.825Z,101408.94
2023-02-13T12:12:17.356Z,101426.53
2023-02-13T12:14:51.581Z,101416.81
2023-02-13T12:17:31.709Z,101417.41
2023-02-13T12:20:14.607Z,101413.84
2023-02-13T12:23:01.940Z,101414.13
2023-02-13T12:25:48.711Z,101410.94
2023-02-13T12:28:29.479Z,101411.13
2023-02-13T12:31:30.764Z,101398.38
2023-02-13T12:34:54.650Z,101401.72
2023-02-13T12:37:53.335Z,101392.66
2023-02-13T12:40:40.876Z,101391.66
2023-02-13T12:43:37.183Z,101353.41
2023-02-13T12:46:16.903Z,101392.38
2023-02-13T12:49:00.106Z,101383.78
2023-02-13T12:51:46.528Z,101383.22
2023-02-13T12:54:42.926Z,101380.25
2023-02-13T12:57:36.589Z,101371.75
2023-02-13T13:00:23.825Z,101382.59
2023-02-13T13:03:38.037Z,101323.47
2023-02-13T13:06:35.199Z,101361.97
2023-02-13T13:09:33.853Z,101368.53
2023-02-13T13:12:26.288Z,101359.78
2023-02-13T13:15:09.804Z,101345.16
2023-02-13T13:17:59.871Z,101358.44
2023-02-13T13:20:59.321Z,101352.97
2023-02-13T13:23:36.133Z,101354.78
2023-02-13T13:26:21.267Z,101359.59
2023-02-13T13:28:59.329Z,101354.78
2023-02-13T13:31:35.668Z,101341.81
2023-02-13T13:34:21.964Z,101321.06
2023-02-13T13:37:01.809Z,101350.31
2023-02-13T13:39:47.992Z,101319.06
2023-02-13T13:42:29.532Z,101327.47
2023-02-13T13:45:26.666Z,101353.28
2023-02-13T13:48:21.402Z,101347.75
2023-02-13T13:50:55.201Z,101343.81
2023-02-13T13:53:28.313Z,101344.44
2023-02-13T13:56:08.682Z,101344.91
2023-02-13T13:58:44.784Z,101346.75
2023-02-13T14:01:29.328Z,101338.25
2023-02-13T14:04:04.497Z,101309.09
2023-02-13T14:07:16.821Z,101337.66
2023-02-13T14:09:50.646Z,101337.41
2023-02-13T14:12:39.809Z,101335.53
2023-02-13T14:15:46.941Z,101327.66
2023-02-13T14:18:23.813Z,101321.00
2023-02-13T14:20:59.529Z,101317.22
2023-02-13T14:23:50.193Z,101322.41
2023-02-13T14:26:37.250Z,101319.41
2023-02-13T14:29:29.312Z,101308.22
2023-02-13T14:32:28.927Z,101292.84
2023-02-13T14:35:06.636Z,101309.34
2023-02-13T14:37:49.124Z,101313.31
2023-02-13T14:40:54.776Z,101303.22
2023-02-13T14:43:34.456Z,101298.84
2023-02-13T14:46:23.695Z,101292.44
2023-02-13T14:49:01.372Z,101300.59
2023-02-13T14:51:39.838Z,101292.75
2023-02-13T14:54:23.104Z,101295.81
2023-02-13T14:57:06.278Z,101291.47
2023-02-13T14:59:46.368Z,101296.34
2023-02-13T15:02:24.743Z,101293.84
2023-02-13T15:05:01.296Z,101296.59
2023-02-13T15:07:40.238Z,101279.59
2023-02-13T15:10:33.117Z,101282.88
2023-02-13T15:13:07.350Z,101279.66
2023-02-13T15:15:42.407Z,101286.91
2023-02-13T15:18:21.737Z,101283.31
2023-02-13T15:20:58.741Z,101287.13
2023-02-13T15:23:35.632Z,101287.47
2023-02-13T15:26:09.535Z,101285.06
2023-02-13T15:28:43.282Z,101286.25
2023-02-13T15:31:24.884Z,101280.25
2023-02-13T15:33:58.826Z,101278.81
2023-02-13T15:36:40.777Z,101276.50
2023-02-13T15:39:19.982Z,101280.09
2023-02-13T15:41:56.531Z,101283.81
2023-02-13T15:44:33.239Z,101277.03
2023-02-13T15:47:09.624Z,101283.31
2023-02-13T15:49:45.485Z,101273.88
2023-02-13T15:52:22.962Z,101274.31
2023-02-13T15:54:58.418Z,101280.34
2023-02-13T15:57:33.344Z,101284.88
2023-02-13T16:00:08.919Z,101279.81
2023-02-13T16:02:47.567Z,101282.50
2023-02-13T16:05:37.546Z,101276.50
2023-02-13T16:08:29.182Z,101281.06
2023-02-13T16:11:29.781Z,101287.44
2023-02-13T16:14:14.024Z,101278.78
2023-02-13T16:16:54.352Z,101284.22
2023-02-13T16:19:32.076Z,101282.63
2023-02-13T16:22:27.292Z,101286.19
2023-02-13T16:25:08.690Z,101287.28
2023-02-13T16:27:46.865Z,101291.81
2023-02-13T16:30:34.132Z,101291.06
2023-02-13T16:33:22.401Z,101292.97
2023-02-13T16:35:57.412Z,101295.78
2023-02-13T16:38:36.230Z,101298.59
2023-02-13T16:41:31.916Z,101299.53
2023-02-13T16:44:06.641Z,101274.59
2023-02-13T16:46:42.293Z,101291.06
2023-02-13T16:49:19.083Z,101293.72
2023-02-13T16:52:12.543Z,101300.03
2023-02-13T16:54:52.381Z,101301.97
2023-02-13T16:57:30.243Z,101295.91
2023-02-13T17:00:08.677Z,101295.09
2023-02-13T17:02:41.913Z,101291.81
2023-02-13T17:05:21.364Z,101273.78
2023-02-13T17:07:58.997Z,101294.59
2023-02-13T17:10:34.528Z,101294.72
2023-02-13T17:13:17.632Z,101300.94
2023-02-13T17:15:52.871Z,101282.84
2023-02-13T17:18:26.649Z,101293.31
2023-02-13T17:21:01.689Z,101286.56
2023-02-13T17:23:35.187Z,101283.84
2023-02-13T17:26:08.376Z,101282.09
2023-02-13T17:28:41.646Z,101280.31
2023-02-13T17:31:16.452Z,101282.19
2023-02-13T17:33:50.347Z,101270.88
2023-02-13T17:36:23.751Z,101268.28
2023-02-13T17:38:57.012Z,101274.47
2023-02-13T17:41:30.705Z,101265.03
2023-02-13T17:44:03.931Z,101238.28
2023-02-13T17:46:38.766Z,101251.50
2023-02-13T17:49:15.141Z,101254.91
2023-02-13T17:51:48.377Z,101253.25
2023-02-13T17:54:21.529Z,101268.91
2023-02-13T17:56:54.707Z,101266.28
2023-02-13T17:59:27.966Z,101260.38
2023-02-13T18:02:02.699Z,101268.19
2023-02-13T18:04:36.040Z,101280.09
2023-02-13T18:07:10.549Z,101273.34
2023-02-13T18:09:43.868Z,101253.69
2023-02-13T18:12:20.572Z,101282.25
2023-02-13T18:14:54.794Z,101262.31
2023-02-13T18:17:29.354Z,101282.81
2023-02-13T18:20:02.822Z,101270.41
2023-02-13T18:22:36.576Z,101267.91
2023-02-13T18:25:10.561Z,101268.16
2023-02-13T18:27:44.005Z,101270.34
2023-02-13T18:30:20.959Z,101277.25
2023-02-13T18:32:59.348Z,101252.16
2023-02-13T18:35:34.850Z,101279.09
2023-02-13T18:38:08.128Z,101251.50
2023-02-13T18:40:41.274Z,101275.81
2023-02-13T18:43:14.502Z,101267.25
2023-02-13T18:45:47.630Z,101265.56
2023-02-13T18:48:22.366Z,101266.72
2023-02-13T18:50:55.739Z,101265.91
2023-02-13T18:53:30.432Z,101257.22
2023-02-13T18:56:04.894Z,101265.41
2023-02-13T18:58:38.113Z,101255.94
2023-02-13T19:01:14.102Z,101258.31
2023-02-13T19:03:49.512Z,101225.56
2023-02-13T19:06:24.756Z,101257.75
2023-02-13T19:09:00.056Z,101248.34
2023-02-13T19:11:34.353Z,101257.78
2023-02-13T19:14:09.164Z,101243.59
2023-02-13T19:16:43.444Z,101246.34
2023-02-13T19:19:18.666Z,101257.78
2023-02-13T19:21:52.499Z,101259.66
2023-02-13T19:24:25.820Z,101253.41
2023-02-13T19:27:00.439Z,101255.19
2023-02-13T19:29:33.889Z,101247.34
2023-02-13T19:32:07.131Z,101252.81
2023-02-13T19:34:42.397Z,101245.75
2023-02-13T19:37:15.816Z,101245.06
2023-02-13T19:39:49.123Z,101240.59
2023-02-13T19:42:22.513Z,101233.69
2023-02-13T19:44:55.862Z,101230.03
2023-02-13T19:47:29.113Z,101225.00
2023-02-13T19:50:04.005Z,101231.06
2023-02-13T19:52:37.751Z,101216.31
2023-02-13T19:55:11.250Z,101224.09
2023-02-13T19:57:44.671Z,101224.22
2023-02-13T20:00:18.994Z,101221.66
2023-02-13T20:02:55.215Z,101220.94
2023-02-13T20:05:30.228Z,101223.53
2023-02-13T20:08:04.289Z,101217.41
2023-02-13T20:10:37.753Z,101225.47
2023-02-13T20:13:11.699Z,101226.50
2023-02-13T20:15:45.161Z,101222.03
2023-02-13T20:18:19.780Z,101228.44
2023-02-13T20:20:54.548Z,101231.13
2023-02-13T20:23:28.085Z,101222.50
2023-02-13T20:26:05.107Z,101207.03
2023-02-13T20:28:38.464Z,101200.03
2023-02-13T20:31:12.465Z,101213.72
2023-02-13T20:33:46.503Z,101209.31
2023-02-13T20:36:23.150Z,101209.41
2023-02-13T20:38:59.654Z,101201.44
2023-02-13T20:41:35.520Z,101195.38
2023-02-13T20:44:11.635Z,101205.81
2023-02-13T20:46:45.147Z,101206.75
2023-02-13T20:49:21.788Z,101209.66
2023-02-13T20:51:56.479Z,101197.41
2023-02-13T20:54:29.683Z,101196.09
2023-02-13T20:57:03.198Z,101176.88
2023-02-13T20:59:36.709Z,101190.50
2023-02-13T21:02:11.337Z,101192.09
2023-02-13T21:04:45.005Z,101182.59
2023-02-13T21:07:19.968Z,101184.44
2023-02-13T21:09:53.171Z,101182.63
2023-02-13T21:12:27.225Z,101178.16
2023-02-13T21:15:01.272Z,101171.44
2023-02-13T21:17:35.618Z,101170.84
2023-02-13T21:20:09.953Z,101173.31
2023-02-13T21:22:44.783Z,101172.28
2023-02-13T21:25:18.751Z,101163.75
2023-02-13T21:27:51.910Z,101159.53
2023-02-13T21:30:25.171Z,101157.84
2023-02-13T21:32:58.737Z,101158.50
2023-02-13T21:35:32.368Z,101152.53
2023-02-13T21:38:07.302Z,101151.09
2023-02-13T21:40:41.056Z,101154.59
2023-02-13T21:43:14.225Z,101158.78
2023-02-13T21:45:47.394Z,101160.44
2023-02-13T21:48:20.790Z,101158.72
2023-02-13T21:50:54.316Z,101157.19
2023-02-13T21:53:29.029Z,101147.59
2023-02-13T21:56:03.418Z,101131.09
2023-02-13T21:58:38.145Z,101151.19
2023-02-13T22:01:20.525Z,101148.50
2023-02-13T22:04:01.039Z,101160.06
2023-02-13T22:06:36.232Z,101152.06
2023-02-13T22:09:12.741Z,101152.25
2023-02-13T22:11:51.456Z,101143.44
2023-02-13T22:14:25.547Z,101145.75
2023-02-13T22:16:59.743Z,101139.94
2023-02-13T22:19:33.603Z,101145.38
2023-02-13T22:22:06.966Z,101140.25
2023-02-13T22:24:41.688Z,101146.28
2023-02-13T22:27:14.904Z,101134.06
2023-02-13T22:29:48.181Z,101124.44
2023-02-13T22:32:21.744Z,101116.94
2023-02-13T22:34:55.308Z,101123.06
2023-02-13T22:37:28.578Z,101111.63
2023-02-13T22:40:03.431Z,101112.59
2023-02-13T22:42:36.499Z,101107.44
2023-02-13T22:45:10.688Z,101100.59
2023-02-13T22:47:44.234Z,101096.91
2023-02-13T22:50:18.025Z,101101.34
2023-02-13T22:52:51.451Z,101098.84
2023-02-13T22:55:26.226Z,101092.91
2023-02-13T22:57:59.369Z,101097.16
2023-02-13T23:00:32.600Z,101085.19
2023-02-13T23:03:05.736Z,101089.69
2023-02-13T23:05:40.858Z,101097.53
2023-02-13T23:08:14.797Z,101094.91
2023-02-13T23:11:09.352Z,101094.13
2023-02-13T23:13:44.337Z,101094.13
2023-02-13T23:16:18.415Z,101073.38
2023-02-13T23:18:52.055Z,101083.44
2023-02-13T23:21:26.336Z,101095.16
2023-02-13T23:23:59.568Z,101093.38
2023-02-13T23:26:34.881Z,101096.03
2023-02-13T23:29:08.173Z,101095.94
2023-02-13T23:31:41.769Z,101104.72
2023-02-13T23:34:15.141Z,101102.88
2023-02-13T23:36:48.682Z,101096.78
2023-02-13T23:39:24.304Z,101099.34
2023-02-13T23:41:59.049Z,101097.69
2023-02-13T23:44:32.219Z,101091.69
2023-02-13T23:47:05.849Z,101090.13
2023-02-13T23:49:39.308Z,101092.66
2023-02-13T23:52:12.568Z,101080.22
2023-02-13T23:54:46.152Z,101087.16
2023-02-13T23:57:20.764Z,101082.19
2023-02-13T23:59:54.053Z,101086.34
